createdAt,value
2018-09-11T00:00:59.477Z,65.64
2018-09-11T00:02:03.684Z,65.46
2018-09-11T00:03:10.026Z,65.91
2018-09-11T00:04:14.236Z,66.40
2018-09-11T00:05:18.386Z,65.56
2018-09-11T00:06:22.537Z,65.52
2018-09-11T00:07:26.683Z,65.57
2018-09-11T00:08:30.864Z,65.70
2018-09-11T00:09:35.266Z,65.63
2018-09-11T00:10:39.400Z,66.08
2018-09-11T00:11:44.424Z,65.98
2018-09-11T00:12:48.612Z,65.54
2018-09-11T00:13:53.171Z,66.08
2018-09-11T00:14:57.430Z,65.51
2018-09-11T00:16:01.607Z,66.00
2018-09-11T00:17:06.041Z,65.36
2018-09-11T00:18:10.238Z,65.97
2018-09-11T00:19:14.362Z,64.66
2018-09-11T00:20:18.575Z,65.51
2018-09-11T00:21:22.887Z,65.51
2018-09-11T00:22:27.038Z,65.63
2018-09-11T00:23:31.233Z,65.16
2018-09-11T00:24:35.573Z,65.03
2018-09-11T00:25:39.777Z,65.25
2018-09-11T00:26:43.985Z,64.73
2018-09-11T00:27:48.495Z,65.24
2018-09-11T00:28:52.931Z,64.76
2018-09-11T00:29:57.068Z,64.80
2018-09-11T00:31:01.474Z,64.79
2018-09-11T00:32:05.724Z,65.49
2018-09-11T00:33:10.033Z,64.92
2018-09-11T00:34:14.442Z,64.62
2018-09-11T00:35:18.751Z,64.19
2018-09-11T00:36:23.140Z,64.85
2018-09-11T00:37:27.283Z,64.68
2018-09-11T00:38:31.905Z,63.94
2018-09-11T00:39:36.139Z,64.68
2018-09-11T00:40:40.342Z,64.23
2018-09-11T00:41:44.596Z,64.37
2018-09-11T00:42:48.801Z,64.38
2018-09-11T00:43:52.976Z,64.37
2018-09-11T00:44:57.147Z,64.18
2018-09-11T00:46:01.343Z,63.68
2018-09-11T00:47:05.527Z,63.81
2018-09-11T00:48:09.716Z,63.50
2018-09-11T00:49:13.874Z,63.26
2018-09-11T00:50:18.110Z,63.43
2018-09-11T00:51:22.286Z,63.25
2018-09-11T00:52:26.532Z,63.18
2018-09-11T00:53:30.965Z,63.65
2018-09-11T00:54:35.146Z,63.17
2018-09-11T00:55:39.500Z,63.61
2018-09-11T00:56:43.683Z,63.30
2018-09-11T00:57:47.902Z,63.30
2018-09-11T00:58:52.287Z,62.83
2018-09-11T00:59:56.765Z,62.58
2018-09-11T01:01:00.938Z,62.89
2018-09-11T01:02:05.313Z,62.65
2018-09-11T01:03:09.538Z,62.79
2018-09-11T01:04:13.762Z,62.19
2018-09-11T01:05:18.268Z,62.61
2018-09-11T01:06:22.454Z,63.07
2018-09-11T01:07:26.669Z,62.31
2018-09-11T01:08:30.904Z,63.10
2018-09-11T01:09:35.084Z,62.41
2018-09-11T01:10:39.243Z,62.59
2018-09-11T01:11:43.469Z,62.55
2018-09-11T01:12:47.630Z,63.20
2018-09-11T01:13:51.850Z,63.00
2018-09-11T01:14:56.046Z,63.03
2018-09-11T01:16:00.195Z,63.00
2018-09-11T01:17:04.391Z,63.06
2018-09-11T01:18:08.605Z,62.93
2018-09-11T01:19:13.004Z,62.72
2018-09-11T01:20:17.148Z,63.07
2018-09-11T01:21:21.377Z,63.01
2018-09-11T01:22:26.004Z,63.02
2018-09-11T01:23:30.234Z,63.43
2018-09-11T01:24:34.452Z,63.26
2018-09-11T01:25:38.736Z,62.96
2018-09-11T01:26:42.922Z,62.53
2018-09-11T01:27:47.260Z,62.42
2018-09-11T01:28:51.392Z,62.53
2018-09-11T01:29:55.736Z,62.96
2018-09-11T01:30:59.941Z,62.39
2018-09-11T01:32:04.182Z,62.38
2018-09-11T01:33:08.366Z,62.98
2018-09-11T01:34:12.528Z,62.33
2018-09-11T01:35:16.953Z,62.52
2018-09-11T01:36:21.160Z,62.61
2018-09-11T01:37:25.339Z,62.84
2018-09-11T01:38:29.524Z,62.23
2018-09-11T01:39:33.706Z,62.41
2018-09-11T01:40:38.003Z,62.78
2018-09-11T01:41:42.293Z,62.82
2018-09-11T01:42:46.530Z,62.09
2018-09-11T01:43:50.830Z,63.01
2018-09-11T01:44:55.008Z,62.59
2018-09-11T01:45:59.260Z,63.09
2018-09-11T01:47:03.394Z,62.67
2018-09-11T01:48:07.625Z,63.06
2018-09-11T01:49:11.829Z,62.60
2018-09-11T01:50:16.003Z,62.69
2018-09-11T01:51:20.370Z,62.57
2018-09-11T01:52:24.828Z,63.19
2018-09-11T01:53:29.105Z,62.97
2018-09-11T01:54:33.248Z,63.20
2018-09-11T01:55:37.619Z,63.07
2018-09-11T01:56:41.825Z,62.80
2018-09-11T01:57:46.131Z,62.86
2018-09-11T01:58:50.746Z,63.03
2018-09-11T01:59:54.976Z,62.82
2018-09-11T02:00:59.415Z,62.92
2018-09-11T02:02:03.659Z,63.00
2018-09-11T02:03:08.122Z,63.28
2018-09-11T02:04:12.283Z,63.35
2018-09-11T02:05:16.769Z,63.02
2018-09-11T02:06:20.935Z,62.86
2018-09-11T02:07:28.458Z,63.01
2018-09-11T02:08:32.956Z,63.45
2018-09-11T02:09:37.168Z,62.72
2018-09-11T02:10:41.342Z,62.71
2018-09-11T02:11:45.532Z,63.49
2018-09-11T02:12:49.816Z,63.45
2018-09-11T02:13:54.022Z,63.56
2018-09-11T02:14:58.228Z,63.44
2018-09-11T02:16:02.366Z,63.03
2018-09-11T02:17:06.760Z,62.95
2018-09-11T02:18:11.000Z,63.62
2018-09-11T02:19:15.155Z,63.61
2018-09-11T02:20:19.361Z,63.80
2018-09-11T02:21:23.561Z,63.82
2018-09-11T02:22:27.766Z,63.58
2018-09-11T02:23:31.976Z,63.43
2018-09-11T02:24:36.206Z,63.19
2018-09-11T02:25:40.356Z,63.83
2018-09-11T02:26:44.587Z,63.75
2018-09-11T02:27:48.801Z,63.71
2018-09-11T02:28:53.503Z,63.58
2018-09-11T02:29:57.917Z,63.84
2018-09-11T02:31:02.070Z,63.83
2018-09-11T02:32:06.425Z,63.30
2018-09-11T02:33:10.745Z,63.91
2018-09-11T02:34:14.946Z,63.96
2018-09-11T02:35:19.251Z,63.59
2018-09-11T02:36:23.481Z,64.06
2018-09-11T02:37:27.777Z,63.71
2018-09-11T02:38:31.963Z,63.68
2018-09-11T02:39:36.147Z,64.20
2018-09-11T02:40:40.347Z,64.62
2018-09-11T02:41:44.510Z,64.05
2018-09-11T02:42:48.853Z,64.42
2018-09-11T02:43:53.440Z,64.24
2018-09-11T02:44:57.665Z,63.78
2018-09-11T02:46:01.919Z,64.54
2018-09-11T02:47:06.326Z,64.01
2018-09-11T02:48:10.557Z,64.53
2018-09-11T02:49:14.740Z,64.36
2018-09-11T02:50:18.973Z,64.32
2018-09-11T02:51:23.204Z,64.89
2018-09-11T02:52:27.548Z,64.02
2018-09-11T02:53:31.701Z,64.24
2018-09-11T02:54:35.967Z,64.67
2018-09-11T02:55:40.178Z,64.38
2018-09-11T02:56:44.416Z,64.77
2018-09-11T02:57:48.684Z,65.04
2018-09-11T02:58:53.096Z,64.63
2018-09-11T02:59:57.298Z,64.79
2018-09-11T03:01:01.684Z,64.37
2018-09-11T03:02:06.070Z,64.71
2018-09-11T03:03:10.239Z,64.71
2018-09-11T03:04:14.427Z,65.10
2018-09-11T03:05:18.673Z,64.98
2018-09-11T03:06:22.853Z,65.04
2018-09-11T03:07:27.024Z,65.12
2018-09-11T03:08:31.182Z,64.98
2018-09-11T03:09:35.537Z,64.80
2018-09-11T03:10:39.761Z,64.58
2018-09-11T03:11:43.937Z,64.71
2018-09-11T03:12:48.170Z,65.00
2018-09-11T03:13:52.291Z,64.77
2018-09-11T03:14:56.466Z,65.21
2018-09-11T03:16:00.621Z,64.60
2018-09-11T03:17:04.990Z,64.47
2018-09-11T03:18:09.167Z,64.72
2018-09-11T03:19:13.404Z,64.66
2018-09-11T03:20:17.529Z,64.18
2018-09-11T03:21:21.667Z,64.51
2018-09-11T03:22:25.861Z,64.78
2018-09-11T03:23:30.017Z,64.26
2018-09-11T03:24:34.221Z,64.61
2018-09-11T03:25:38.426Z,64.90
2018-09-11T03:26:42.585Z,64.32
2018-09-11T03:27:46.836Z,63.92
2018-09-11T03:28:50.987Z,63.95
2018-09-11T03:29:55.248Z,63.89
2018-09-11T03:30:59.433Z,63.71
2018-09-11T03:32:03.598Z,64.14
2018-09-11T03:33:07.771Z,64.00
2018-09-11T03:34:11.955Z,63.36
2018-09-11T03:35:16.170Z,63.43
2018-09-11T03:36:20.432Z,63.54
2018-09-11T03:37:24.558Z,63.36
2018-09-11T03:38:28.747Z,63.80
2018-09-11T03:39:32.990Z,64.12
2018-09-11T03:40:37.176Z,63.85
2018-09-11T03:41:41.401Z,63.26
2018-09-11T03:42:45.703Z,64.05
2018-09-11T03:43:49.913Z,63.73
2018-09-11T03:44:54.118Z,63.81
2018-09-11T03:45:58.266Z,63.26
2018-09-11T03:47:02.734Z,64.05
2018-09-11T03:48:06.869Z,63.32
2018-09-11T03:49:11.215Z,63.70
2018-09-11T03:50:15.402Z,63.44
2018-09-11T03:51:19.583Z,63.23
2018-09-11T03:52:23.888Z,63.37
2018-09-11T03:53:28.058Z,63.29
2018-09-11T03:54:32.230Z,63.29
2018-09-11T03:55:36.379Z,63.17
2018-09-11T03:56:40.568Z,63.63
2018-09-11T03:57:44.711Z,63.70
2018-09-11T03:58:49.031Z,62.92
2018-09-11T03:59:53.177Z,63.58
2018-09-11T04:00:57.340Z,63.30
2018-09-11T04:02:01.891Z,62.83
2018-09-11T04:03:06.080Z,63.04
2018-09-11T04:04:10.253Z,62.68
2018-09-11T04:05:14.570Z,62.62
2018-09-11T04:06:18.836Z,63.38
2018-09-11T04:07:23.144Z,63.12
2018-09-11T04:08:27.287Z,62.77
2018-09-11T04:09:31.569Z,62.59
2018-09-11T04:10:36.018Z,62.93
2018-09-11T04:11:40.377Z,63.05
2018-09-11T04:12:44.546Z,63.27
2018-09-11T04:13:48.871Z,63.32
2018-09-11T04:14:53.060Z,62.50
2018-09-11T04:15:57.246Z,63.19
2018-09-11T04:17:01.455Z,62.53
2018-09-11T04:18:05.741Z,63.22
2018-09-11T04:19:10.117Z,62.70
2018-09-11T04:20:14.286Z,62.80
2018-09-11T04:21:18.493Z,63.26
2018-09-11T04:22:22.666Z,62.46
2018-09-11T04:23:26.998Z,62.70
2018-09-11T04:24:31.141Z,62.34
2018-09-11T04:25:35.355Z,62.41
2018-09-11T04:26:39.611Z,63.13
2018-09-11T04:27:43.983Z,63.11
2018-09-11T04:28:48.149Z,62.86
2018-09-11T04:29:52.302Z,62.35
2018-09-11T04:30:56.474Z,62.94
2018-09-11T04:32:00.679Z,62.54
2018-09-11T04:33:04.888Z,62.73
2018-09-11T04:34:09.075Z,63.08
2018-09-11T04:35:13.279Z,62.44
2018-09-11T04:36:17.530Z,62.76
2018-09-11T04:37:21.694Z,62.96
2018-09-11T04:38:25.854Z,62.59
2018-09-11T04:39:30.368Z,62.83
2018-09-11T04:40:34.628Z,63.16
2018-09-11T04:41:38.835Z,62.44
2018-09-11T04:42:42.990Z,62.85
2018-09-11T04:43:47.156Z,62.90
2018-09-11T04:44:51.345Z,63.24
2018-09-11T04:45:55.519Z,62.60
2018-09-11T04:46:59.860Z,62.35
2018-09-11T04:48:04.151Z,62.73
2018-09-11T04:49:08.371Z,62.57
2018-09-11T04:50:12.550Z,62.42
2018-09-11T04:51:16.886Z,62.58
2018-09-11T04:52:21.120Z,63.09
2018-09-11T04:53:25.500Z,62.64
2018-09-11T04:54:29.666Z,62.85
2018-09-11T04:55:33.836Z,62.52
2018-09-11T04:56:38.070Z,63.08
2018-09-11T04:57:42.234Z,62.27
2018-09-11T04:58:46.526Z,62.32
2018-09-11T04:59:50.701Z,62.24
2018-09-11T05:00:54.878Z,62.94
2018-09-11T05:01:59.141Z,62.59
2018-09-11T05:03:03.653Z,62.40
2018-09-11T05:04:07.864Z,62.63
2018-09-11T05:05:12.166Z,62.44
2018-09-11T05:06:16.309Z,62.89
2018-09-11T05:07:20.481Z,62.94
2018-09-11T05:08:24.704Z,63.17
2018-09-11T05:09:28.867Z,63.04
2018-09-11T05:10:33.250Z,62.81
2018-09-11T05:11:37.499Z,62.84
2018-09-11T05:12:41.685Z,62.86
2018-09-11T05:13:45.855Z,63.56
2018-09-11T05:14:50.219Z,63.16
2018-09-11T05:15:54.354Z,62.31
2018-09-11T05:16:58.748Z,63.11
2018-09-11T05:18:02.934Z,62.58
2018-09-11T05:19:07.135Z,62.72
2018-09-11T05:20:11.275Z,63.24
2018-09-11T05:21:15.438Z,63.04
2018-09-11T05:22:19.652Z,62.72
2018-09-11T05:23:23.794Z,62.87
2018-09-11T05:24:28.168Z,63.39
2018-09-11T05:25:32.374Z,62.96
2018-09-11T05:26:36.576Z,63.10
2018-09-11T05:27:40.785Z,62.91
2018-09-11T05:28:45.067Z,63.27
2018-09-11T05:29:49.235Z,62.66
2018-09-11T05:30:53.602Z,63.05
2018-09-11T05:31:57.806Z,63.05
2018-09-11T05:33:01.966Z,62.65
2018-09-11T05:34:06.319Z,62.94
2018-09-11T05:35:10.832Z,63.58
2018-09-11T05:36:15.015Z,63.49
2018-09-11T05:37:19.202Z,63.93
2018-09-11T05:38:23.549Z,63.23
2018-09-11T05:39:27.866Z,63.63
2018-09-11T05:40:32.226Z,63.13
2018-09-11T05:41:36.475Z,63.47
2018-09-11T05:42:40.622Z,63.16
2018-09-11T05:43:44.883Z,63.54
2018-09-11T05:44:49.046Z,64.06
2018-09-11T05:45:53.587Z,63.46
2018-09-11T05:46:57.812Z,63.35
2018-09-11T05:48:01.988Z,63.34
2018-09-11T05:49:06.421Z,64.14
2018-09-11T05:50:10.705Z,63.87
2018-09-11T05:51:14.998Z,63.73
2018-09-11T05:52:19.300Z,64.36
2018-09-11T05:53:23.526Z,64.26
2018-09-11T05:54:27.751Z,63.52
2018-09-11T05:55:31.911Z,64.18
2018-09-11T05:56:36.153Z,63.70
2018-09-11T05:57:40.324Z,63.79
2018-09-11T05:58:44.484Z,63.81
2018-09-11T05:59:48.655Z,64.23
2018-09-11T06:00:53.051Z,64.39
2018-09-11T06:01:57.201Z,64.44
2018-09-11T06:03:01.374Z,64.35
2018-09-11T06:04:06.189Z,64.08
2018-09-11T06:05:10.340Z,63.96
2018-09-11T06:06:14.501Z,64.23
2018-09-11T06:07:18.881Z,64.38
2018-09-11T06:08:23.050Z,64.03
2018-09-11T06:09:27.238Z,64.92
2018-09-11T06:10:31.485Z,64.49
2018-09-11T06:11:35.686Z,64.72
2018-09-11T06:12:39.858Z,64.22
2018-09-11T06:13:44.026Z,64.60
2018-09-11T06:14:48.408Z,64.81
2018-09-11T06:15:52.675Z,64.66
2018-09-11T06:16:56.929Z,63.95
2018-09-11T06:18:01.095Z,64.87
2018-09-11T06:19:05.611Z,64.29
2018-09-11T06:20:10.012Z,64.39
2018-09-11T06:21:14.419Z,64.74
2018-09-11T06:22:18.638Z,64.46
2018-09-11T06:23:22.774Z,64.63
2018-09-11T06:24:27.306Z,64.58
2018-09-11T06:25:31.469Z,64.13
2018-09-11T06:26:35.751Z,64.19
2018-09-11T06:27:39.922Z,64.26
2018-09-11T06:28:44.160Z,64.59
2018-09-11T06:29:48.366Z,64.22
2018-09-11T06:30:52.580Z,64.48
2018-09-11T06:31:56.760Z,64.45
2018-09-11T06:33:01.078Z,64.78
2018-09-11T06:34:05.382Z,64.01
2018-09-11T06:35:09.624Z,64.51
2018-09-11T06:36:13.947Z,64.55
2018-09-11T06:37:18.137Z,64.45
2018-09-11T06:38:22.342Z,63.96
2018-09-11T06:39:26.983Z,64.37
2018-09-11T06:40:31.198Z,63.93
2018-09-11T06:41:35.443Z,63.99
2018-09-11T06:42:39.620Z,64.08
2018-09-11T06:43:43.853Z,63.85
2018-09-11T06:44:48.156Z,64.34
2018-09-11T06:45:52.232Z,64.39
2018-09-11T06:46:56.573Z,64.09
2018-09-11T06:48:00.927Z,64.22
2018-09-11T06:49:05.504Z,63.93
2018-09-11T06:50:09.760Z,64.40
2018-09-11T06:51:14.004Z,64.56
2018-09-11T06:52:18.210Z,63.74
2018-09-11T06:53:22.362Z,63.90
2018-09-11T06:54:26.724Z,64.23
2018-09-11T06:55:30.857Z,64.79
2018-09-11T06:56:35.069Z,64.24
2018-09-11T06:57:39.222Z,64.71
2018-09-11T06:58:43.503Z,64.22
2018-09-11T06:59:47.633Z,64.38
2018-09-11T07:00:51.787Z,64.72
2018-09-11T07:01:55.997Z,64.56
2018-09-11T07:03:00.316Z,64.46
2018-09-11T07:04:04.772Z,64.19
2018-09-11T07:05:09.225Z,64.43
2018-09-11T07:06:13.451Z,63.90
2018-09-11T07:07:17.593Z,64.03
2018-09-11T07:08:22.067Z,64.06
2018-09-11T07:09:26.129Z,64.15
2018-09-11T07:10:30.305Z,64.32
2018-09-11T07:11:34.489Z,64.60
2018-09-11T07:12:38.822Z,64.59
2018-09-11T07:13:43.028Z,63.96
2018-09-11T07:14:47.271Z,64.03
2018-09-11T07:15:51.418Z,64.30
2018-09-11T07:16:55.731Z,64.55
2018-09-11T07:18:00.156Z,64.35
2018-09-11T07:19:04.512Z,63.81
2018-09-11T07:20:09.543Z,64.23
2018-09-11T07:21:13.574Z,64.03
2018-09-11T07:22:18.279Z,64.21
2018-09-11T07:23:22.445Z,64.47
2018-09-11T07:24:26.719Z,63.90
2018-09-11T07:25:30.895Z,63.87
2018-09-11T07:26:35.055Z,64.31
2018-09-11T07:27:39.247Z,63.64
2018-09-11T07:28:43.611Z,64.27
2018-09-11T07:29:48.139Z,64.23
2018-09-11T07:30:52.619Z,63.85
2018-09-11T07:31:56.867Z,64.13
2018-09-11T07:33:01.078Z,63.33
2018-09-11T07:34:05.311Z,63.19
2018-09-11T07:35:09.692Z,63.78
2018-09-11T07:36:14.108Z,63.65
2018-09-11T07:37:18.230Z,63.92
2018-09-11T07:38:22.401Z,63.53
2018-09-11T07:39:26.582Z,63.60
2018-09-11T07:40:30.864Z,63.68
2018-09-11T07:41:35.033Z,63.23
2018-09-11T07:42:39.334Z,62.89
2018-09-11T07:43:43.695Z,63.10
2018-09-11T07:44:47.948Z,63.55
2018-09-11T07:45:52.129Z,62.92
2018-09-11T07:46:56.310Z,63.36
2018-09-11T07:48:00.461Z,63.15
2018-09-11T07:49:04.817Z,63.14
2018-09-11T07:50:09.177Z,63.08
2018-09-11T07:51:13.588Z,63.58
2018-09-11T07:52:17.775Z,63.87
2018-09-11T07:53:21.932Z,63.88
2018-09-11T07:54:26.112Z,63.17
2018-09-11T07:55:30.409Z,63.70
2018-09-11T07:56:34.558Z,63.68
2018-09-11T07:57:38.776Z,63.58
2018-09-11T07:58:42.911Z,63.70
2018-09-11T07:59:47.057Z,63.19
2018-09-11T08:00:51.242Z,63.52
2018-09-11T08:01:55.411Z,63.76
2018-09-11T08:02:59.620Z,63.35
2018-09-11T08:04:03.946Z,63.39
2018-09-11T08:05:08.400Z,63.97
2018-09-11T08:06:12.616Z,63.51
2018-09-11T08:07:16.824Z,63.85
2018-09-11T08:08:21.079Z,63.73
2018-09-11T08:09:25.320Z,63.57
2018-09-11T08:10:29.457Z,63.32
2018-09-11T08:11:33.662Z,63.31
2018-09-11T08:12:37.830Z,63.94
2018-09-11T08:13:42.138Z,63.66
2018-09-11T08:14:46.314Z,63.91
2018-09-11T08:15:50.532Z,63.31
2018-09-11T08:16:54.777Z,63.36
2018-09-11T08:17:58.943Z,63.28
2018-09-11T08:19:03.439Z,63.30
2018-09-11T08:20:07.709Z,64.01
2018-09-11T08:21:12.193Z,63.65
2018-09-11T08:22:16.454Z,63.88
2018-09-11T08:23:20.574Z,63.06
2018-09-11T08:24:24.869Z,63.76
2018-09-11T08:25:29.177Z,63.40
2018-09-11T08:26:33.299Z,62.88
2018-09-11T08:27:37.528Z,63.16
2018-09-11T08:28:41.879Z,63.47
2018-09-11T08:29:46.204Z,62.80
2018-09-11T08:30:50.342Z,63.00
2018-09-11T08:31:54.754Z,63.22
2018-09-11T08:32:58.982Z,62.53
2018-09-11T08:34:03.545Z,62.48
2018-09-11T08:35:07.737Z,62.80
2018-09-11T08:36:11.866Z,63.05
2018-09-11T08:37:16.010Z,62.90
2018-09-11T08:38:20.264Z,62.93
2018-09-11T08:39:24.463Z,62.87
2018-09-11T08:40:28.666Z,62.26
2018-09-11T08:41:32.816Z,62.89
2018-09-11T08:42:36.953Z,62.33
2018-09-11T08:43:41.249Z,62.12
2018-09-11T08:44:45.398Z,62.47
2018-09-11T08:45:49.550Z,62.81
2018-09-11T08:46:53.717Z,62.78
2018-09-11T08:47:57.958Z,62.72
2018-09-11T08:49:02.595Z,62.70
2018-09-11T08:50:07.212Z,62.71
2018-09-11T08:51:12.032Z,62.60
2018-09-11T08:52:16.218Z,61.63
2018-09-11T08:53:20.561Z,61.71
2018-09-11T08:54:24.973Z,62.31
2018-09-11T08:55:29.202Z,62.29
2018-09-11T08:56:33.353Z,61.57
2018-09-11T08:57:37.519Z,61.48
2018-09-11T08:58:41.788Z,62.10
2018-09-11T08:59:46.001Z,61.42
2018-09-11T09:00:50.137Z,61.24
2018-09-11T09:01:54.353Z,61.30
2018-09-11T09:02:58.527Z,61.40
2018-09-11T09:04:02.720Z,61.12
2018-09-11T09:05:06.929Z,61.22
2018-09-11T09:06:11.311Z,61.47
2018-09-11T09:07:15.491Z,60.92
2018-09-11T09:08:19.621Z,61.32
2018-09-11T09:09:23.794Z,61.32
2018-09-11T09:10:28.006Z,60.75
2018-09-11T09:11:32.142Z,60.74
2018-09-11T09:12:36.457Z,60.33
2018-09-11T09:13:40.607Z,60.50
2018-09-11T09:14:44.868Z,60.64
2018-09-11T09:15:49.092Z,60.69
2018-09-11T09:16:53.246Z,60.75
2018-09-11T09:17:57.428Z,60.19
2018-09-11T09:19:01.569Z,60.51
2018-09-11T09:20:05.798Z,60.54
2018-09-11T09:21:10.152Z,60.26
2018-09-11T09:22:14.351Z,60.13
2018-09-11T09:23:18.757Z,60.25
2018-09-11T09:24:22.922Z,60.12
2018-09-11T09:25:27.074Z,59.59
2018-09-11T09:26:31.271Z,60.32
2018-09-11T09:27:35.428Z,59.98
2018-09-11T09:28:39.639Z,59.64
2018-09-11T09:29:43.943Z,59.69
2018-09-11T09:30:48.116Z,59.61
2018-09-11T09:31:52.429Z,60.03
2018-09-11T09:32:56.930Z,59.33
2018-09-11T09:34:01.114Z,59.80
2018-09-11T09:35:05.437Z,59.25
2018-09-11T09:36:09.643Z,59.46
2018-09-11T09:37:13.905Z,59.69
2018-09-11T09:38:18.075Z,59.34
2018-09-11T09:39:22.234Z,58.97
2018-09-11T09:40:26.690Z,59.51
2018-09-11T09:41:31.069Z,58.88
2018-09-11T09:42:35.470Z,59.20
2018-09-11T09:43:39.651Z,58.54
2018-09-11T09:44:43.842Z,58.99
2018-09-11T09:45:48.022Z,58.46
2018-09-11T09:46:52.212Z,58.44
2018-09-11T09:47:56.427Z,58.52
2018-09-11T09:49:00.599Z,59.33
2018-09-11T09:50:05.110Z,58.47
2018-09-11T09:51:09.407Z,58.98
2018-09-11T09:52:13.611Z,58.38
2018-09-11T09:53:18.075Z,57.97
2018-09-11T09:54:22.406Z,58.14
2018-09-11T09:55:26.607Z,57.96
2018-09-11T09:56:30.742Z,57.97
2018-09-11T09:57:34.926Z,58.01
2018-09-11T09:58:39.144Z,57.83
2018-09-11T09:59:44.340Z,57.89
2018-09-11T10:00:53.805Z,57.99
2018-09-11T10:02:03.208Z,57.83
2018-09-11T10:03:07.353Z,57.96
2018-09-11T10:04:11.871Z,57.18
2018-09-11T10:05:16.049Z,57.94
2018-09-11T10:06:20.479Z,57.66
2018-09-11T10:07:24.946Z,57.36
2018-09-11T10:08:29.069Z,57.90
2018-09-11T10:09:33.358Z,57.26
2018-09-11T10:10:37.515Z,57.57
2018-09-11T10:11:41.896Z,57.26
2018-09-11T10:12:46.055Z,57.03
2018-09-11T10:13:50.227Z,57.72
2018-09-11T10:14:54.426Z,57.12
2018-09-11T10:15:58.626Z,56.91
2018-09-11T10:17:02.815Z,57.63
2018-09-11T10:18:06.622Z,57.12
2018-09-11T10:19:10.788Z,56.77
2018-09-11T10:20:15.017Z,56.56
2018-09-11T10:21:19.203Z,56.18
2018-09-11T10:22:23.375Z,56.21
2018-09-11T10:23:27.561Z,56.66
2018-09-11T10:24:31.921Z,56.66
2018-09-11T10:25:36.209Z,56.56
2018-09-11T10:26:40.373Z,56.34
2018-09-11T10:27:44.625Z,56.35
2018-09-11T10:28:48.743Z,55.83
2018-09-11T10:29:52.898Z,56.33
2018-09-11T10:30:57.107Z,56.18
2018-09-11T10:32:01.236Z,55.67
2018-09-11T10:33:05.395Z,55.63
2018-09-11T10:34:09.589Z,55.69
2018-09-11T10:35:13.771Z,55.26
2018-09-11T10:36:17.941Z,55.99
2018-09-11T10:37:22.118Z,55.30
2018-09-11T10:38:26.331Z,55.21
2018-09-11T10:39:30.546Z,55.17
2018-09-11T10:40:34.784Z,55.80
2018-09-11T10:41:38.998Z,55.78
2018-09-11T10:42:43.211Z,55.58
2018-09-11T10:43:47.709Z,55.40
2018-09-11T10:44:51.923Z,54.93
2018-09-11T10:45:56.120Z,55.63
2018-09-11T10:47:00.331Z,55.52
2018-09-11T10:48:04.511Z,55.29
2018-09-11T10:49:08.755Z,54.96
2018-09-11T10:50:12.914Z,55.12
2018-09-11T10:51:17.100Z,55.14
2018-09-11T10:52:21.283Z,55.26
2018-09-11T10:53:25.479Z,54.73
2018-09-11T10:54:29.664Z,54.53
2018-09-11T10:55:33.903Z,53.79
2018-09-11T10:56:38.174Z,54.10
2018-09-11T10:57:42.621Z,54.36
2018-09-11T10:58:46.783Z,53.66
2018-09-11T10:59:51.153Z,54.32
2018-09-11T11:00:55.337Z,53.75
2018-09-11T11:01:59.482Z,54.26
2018-09-11T11:03:03.934Z,53.90
2018-09-11T11:04:08.141Z,53.72
2018-09-11T11:05:12.381Z,54.37
2018-09-11T11:06:16.505Z,54.17
2018-09-11T11:07:21.100Z,54.00
2018-09-11T11:08:25.281Z,54.15
2018-09-11T11:09:29.664Z,53.58
2018-09-11T11:10:33.888Z,53.70
2018-09-11T11:11:38.180Z,53.77
2018-09-11T11:12:42.443Z,53.12
2018-09-11T11:13:46.645Z,52.53
2018-09-11T11:14:51.927Z,53.09
2018-09-11T11:15:56.064Z,52.38
2018-09-11T11:17:00.315Z,52.99
2018-09-11T11:18:04.624Z,53.02
2018-09-11T11:19:08.999Z,52.79
2018-09-11T11:20:13.355Z,52.17
2018-09-11T11:21:17.652Z,52.60
2018-09-11T11:22:22.231Z,52.49
2018-09-11T11:23:26.411Z,52.42
2018-09-11T11:24:30.673Z,52.16
2018-09-11T11:25:34.793Z,52.10
2018-09-11T11:26:38.955Z,51.96
2018-09-11T11:27:43.099Z,51.91
2018-09-11T11:28:47.258Z,51.45
2018-09-11T11:29:51.509Z,51.74
2018-09-11T11:30:55.649Z,50.92
2018-09-11T11:31:59.805Z,51.20
2018-09-11T11:33:03.963Z,50.61
2018-09-11T11:34:08.329Z,51.28
2018-09-11T11:35:12.740Z,51.28
2018-09-11T11:36:17.053Z,50.63
2018-09-11T11:37:21.142Z,51.36
2018-09-11T11:38:25.282Z,50.61
2018-09-11T11:39:29.456Z,50.67
2018-09-11T11:40:33.656Z,50.90
2018-09-11T11:41:38.128Z,50.93
2018-09-11T11:42:42.327Z,50.85
2018-09-11T11:43:46.516Z,51.12
2018-09-11T11:44:50.661Z,50.76
2018-09-11T11:45:54.866Z,50.76
2018-09-11T11:46:59.002Z,50.86
2018-09-11T11:48:03.176Z,51.59
2018-09-11T11:49:07.348Z,50.80
2018-09-11T11:50:11.611Z,51.41
2018-09-11T11:51:15.796Z,50.68
2018-09-11T11:52:20.429Z,50.88
2018-09-11T11:53:24.583Z,50.64
2018-09-11T11:54:28.742Z,50.08
2018-09-11T11:55:32.980Z,50.79
2018-09-11T11:56:37.094Z,50.58
2018-09-11T11:57:41.238Z,50.04
2018-09-11T11:58:45.429Z,49.89
2018-09-11T11:59:49.549Z,50.07
2018-09-11T12:00:53.718Z,49.83
2018-09-11T12:01:57.964Z,50.57
2018-09-11T12:03:02.119Z,50.08
2018-09-11T12:04:06.528Z,50.33
2018-09-11T12:05:10.714Z,49.78
2018-09-11T12:06:14.879Z,50.57
2018-09-11T12:07:19.028Z,50.43
2018-09-11T12:08:23.787Z,49.91
2018-09-11T12:09:28.054Z,50.18
2018-09-11T12:10:32.478Z,50.20
2018-09-11T12:11:36.645Z,50.10
2018-09-11T12:12:40.840Z,50.14
2018-09-11T12:13:45.046Z,49.75
2018-09-11T12:14:49.199Z,49.86
2018-09-11T12:15:53.391Z,50.03
2018-09-11T12:16:57.621Z,50.10
2018-09-11T12:18:01.863Z,49.78
2018-09-11T12:19:06.006Z,49.29
2018-09-11T12:20:10.172Z,49.53
2018-09-11T12:21:14.387Z,49.85
2018-09-11T12:22:18.687Z,49.73
2018-09-11T12:23:22.842Z,49.58
2018-09-11T12:24:27.097Z,49.58
2018-09-11T12:25:31.308Z,49.74
2018-09-11T12:26:35.548Z,50.03
2018-09-11T12:27:39.816Z,49.71
2018-09-11T12:28:43.993Z,49.76
2018-09-11T12:29:48.171Z,49.68
2018-09-11T12:30:53.069Z,49.21
2018-09-11T12:31:57.230Z,49.45
2018-09-11T12:33:01.455Z,49.96
2018-09-11T12:34:05.637Z,49.78
2018-09-11T12:35:10.037Z,49.40
2018-09-11T12:36:14.172Z,49.93
2018-09-11T12:37:18.334Z,50.16
2018-09-11T12:38:22.483Z,49.48
2018-09-11T12:39:26.662Z,49.17
2018-09-11T12:40:31.506Z,49.08
2018-09-11T12:41:35.724Z,49.82
2018-09-11T12:42:39.877Z,49.28
2018-09-11T12:43:44.023Z,48.95
2018-09-11T12:44:48.224Z,49.41
2018-09-11T12:45:52.467Z,49.34
2018-09-11T12:46:56.683Z,49.92
2018-09-11T12:48:01.237Z,49.69
2018-09-11T12:49:04.936Z,50.02
2018-09-11T12:50:09.303Z,49.83
2018-09-11T12:51:13.494Z,49.32
2018-09-11T12:52:17.662Z,49.29
2018-09-11T12:53:21.826Z,49.20
2018-09-11T12:54:25.995Z,48.84
2018-09-11T12:55:30.228Z,49.90
2018-09-11T12:56:34.382Z,49.47
2018-09-11T12:57:38.568Z,49.71
2018-09-11T12:58:42.732Z,49.86
2018-09-11T12:59:48.034Z,48.99
2018-09-11T13:00:52.503Z,49.45
2018-09-11T13:01:56.634Z,49.27
2018-09-11T13:03:00.771Z,48.88
2018-09-11T13:04:04.935Z,48.83
2018-09-11T13:05:09.056Z,48.49
2018-09-11T13:06:13.321Z,49.38
2018-09-11T13:07:17.510Z,48.84
2018-09-11T13:08:21.724Z,48.60
2018-09-11T13:09:26.425Z,49.13
2018-09-11T13:10:30.785Z,48.98
2018-09-11T13:11:35.068Z,48.82
2018-09-11T13:12:39.307Z,49.34
2018-09-11T13:13:43.607Z,49.44
2018-09-11T13:14:47.832Z,48.52
2018-09-11T13:15:52.152Z,48.81
2018-09-11T13:16:56.401Z,49.03
2018-09-11T13:18:00.532Z,48.38
2018-09-11T13:19:04.762Z,48.97
2018-09-11T13:20:09.043Z,48.80
2018-09-11T13:21:13.349Z,48.66
2018-09-11T13:22:17.511Z,48.86
2018-09-11T13:23:21.657Z,48.36
2018-09-11T13:24:25.840Z,48.41
2018-09-11T13:25:30.065Z,49.05
2018-09-11T13:26:34.202Z,48.70
2018-09-11T13:27:38.424Z,48.53
2018-09-11T13:28:42.635Z,48.94
2018-09-11T13:29:46.807Z,48.60
2018-09-11T13:30:51.095Z,48.61
2018-09-11T13:31:55.313Z,48.42
2018-09-11T13:32:59.504Z,48.38
2018-09-11T13:34:03.656Z,48.23
2018-09-11T13:35:13.082Z,48.24
2018-09-11T13:36:22.465Z,48.12
2018-09-11T13:37:31.841Z,47.20
2018-09-11T13:38:41.469Z,47.36
2018-09-11T13:39:51.066Z,47.59
2018-09-11T13:41:00.644Z,46.99
2018-09-11T13:42:10.639Z,46.98
2018-09-11T13:43:20.066Z,47.78
2018-09-11T13:44:29.786Z,47.64
2018-09-11T13:45:39.522Z,47.37
2018-09-11T13:46:49.159Z,47.48
2018-09-11T13:47:58.728Z,47.29
2018-09-11T13:49:08.316Z,46.16